Time;durP1;ratioP1;P1;durP2;ratioP2;P2;SDS_P1;SDS_P2;PMS_P1;PMS_P2;Temp;Humidity;BMP_temperature;BMP_pressure;BME280_temperature;BME280_humidity;BME280_pressure;Samples;Min_cycle;Max_cycle;Signal;HPM_P1;HPM_P2
2020/12/18 05:01:19;;;;;;;15.47;12.87;;;5.90;99.90;;;;;;5602924;24;180546;31
2020/12/18 05:03:54;;;;;;;19.00;13.40;;;5.90;99.90;;;;;;4656621;29;181704;-73
2020/12/18 05:06:22;;;;;;;17.73;13.57;;;5.90;99.90;;;;;;4660712;29;178981;-73
2020/12/18 05:08:48;;;;;;;18.80;13.27;;;5.90;99.90;;;;;;4661751;29;178585;-72
2020/12/18 05:11:21;;;;;;;17.80;13.80;;;5.90;99.90;;;;;;4662786;29;181827;-72
2020/12/18 05:13:55;;;;;;;21.80;15.10;;;5.90;99.90;;;;;;4662288;29;181452;-72
2020/12/18 05:16:23;;;;;;;17.60;13.10;;;5.90;99.90;;;;;;4663942;29;178784;-72
2020/12/18 05:19:19;;;;;;;20.20;13.90;;;5.90;99.90;;;;;;4655242;29;178548;-72
2020/12/18 05:22:05;;;;;;;19.50;14.33;;;5.80;99.90;;;;;;4661088;29;184997;-72
2020/12/18 05:24:59;;;;;;;18.00;12.90;;;5.90;99.90;;;;;;4658304;29;181469;-72
2020/12/18 05:27:28;;;;;;;28.73;15.20;;;5.90;99.90;;;;;;4662563;29;178366;-72
2020/12/18 05:30:03;;;;;;;18.27;13.77;;;5.90;99.90;;;;;;4649622;29;178637;-72
2020/12/18 05:32:34;;;;;;;19.53;14.10;;;5.90;99.90;;;;;;4647635;29;178566;-72
2020/12/18 05:35:05;;;;;;;20.53;14.87;;;5.80;99.90;;;;;;4647710;29;178599;-72
2020/12/18 05:37:44;;;;;;;19.57;14.03;;;5.90;99.90;;;;;;4663311;29;178220;-72
2020/12/18 05:40:29;;;;;;;25.17;14.07;;;5.90;99.90;;;;;;4663772;29;176756;-72
2020/12/18 05:43:15;;;;;;;27.47;15.40;;;5.90;99.90;;;;;;4643955;29;179647;-72
2020/12/18 05:45:46;;;;;;;19.20;14.77;;;5.90;99.90;;;;;;4662087;29;181390;-72
2020/12/18 05:48:32;;;;;;;27.63;16.60;;;5.80;99.90;;;;;;4648066;29;182241;-72
2020/12/18 05:51:07;;;;;;;22.47;16.70;;;5.80;99.90;;;;;;4661938;29;179032;-72
2020/12/18 05:53:34;;;;;;;19.97;14.60;;;6.00;99.90;;;;;;4662527;29;181739;-72
2020/12/18 05:56:29;;;;;;;19.83;15.33;;;5.80;99.90;;;;;;4662572;29;181727;-72
2020/12/18 05:59:16;;;;;;;35.10;16.90;;;5.80;99.90;;;;;;4663159;29;178180;-72
2020/12/18 06:01:55;;;;;;;22.53;15.27;;;5.80;99.90;;;;;;4656213;29;178347;-72
2020/12/18 06:04:33;;;;;;;32.07;16.60;;;5.90;99.90;;;;;;4630136;29;180769;-72
2020/12/18 06:07:07;;;;;;;25.77;14.90;;;5.80;99.90;;;;;;4641862;29;179526;-72
2020/12/18 06:09:58;;;;;;;21.07;14.60;;;5.80;99.90;;;;;;4623452;29;178010;-72
2020/12/18 06:12:33;;;;;;;30.10;16.30;;;5.70;99.90;;;;;;4633753;29;178593;-71
2020/12/18 06:15:01;;;;;;;21.03;15.93;;;5.70;99.90;;;;;;4642011;29;187251;-71
2020/12/18 06:17:28;;;;;;;18.90;14.57;;;5.70;99.90;;;;;;4645136;29;187046;-72
2020/12/18 06:19:59;;;;;;;17.03;13.40;;;5.70;99.90;;;;;;4643212;29;178174;-72
2020/12/18 06:22:35;;;;;;;49.03;17.17;;;5.70;99.90;;;;;;4644188;29;179101;-72
2020/12/18 06:25:22;;;;;;;22.87;15.37;;;5.70;99.90;;;;;;4644167;29;182435;-72
2020/12/18 06:28:07;;;;;;;40.73;17.37;;;5.60;99.90;;;;;;4630595;29;178512;-72
2020/12/18 06:30:59;;;;;;;18.87;13.67;;;5.60;99.90;;;;;;4644309;29;178093;-71
2020/12/18 06:34:03;;;;;;;29.03;15.10;;;5.60;99.90;;;;;;4646268;29;176788;-71
2020/12/18 06:36:47;;;;;;;85.70;20.43;;;5.60;99.90;;;;;;4630971;29;178373;-71
2020/12/18 06:39:28;;;;;;;24.00;15.07;;;5.60;99.90;;;;;;4640523;29;182879;-72
2020/12/18 06:42:22;;;;;;;29.33;15.20;;;5.50;99.90;;;;;;4634297;29;183225;-72
2020/12/18 06:45:09;;;;;;;18.40;12.87;;;5.50;99.90;;;;;;4623076;29;181484;-72
2020/12/18 06:47:48;;;;;;;19.80;14.60;;;5.50;99.90;;;;;;4626163;29;180217;-72
2020/12/18 06:50:34;;;;;;;41.97;15.07;;;5.50;99.90;;;;;;4622881;29;181094;-72
2020/12/18 06:53:24;;;;;;;26.00;15.73;;;5.40;99.90;;;;;;4634664;29;178853;-72
2020/12/18 06:56:25;;;;;;;25.57;14.63;;;5.40;99.90;;;;;;4632685;29;178755;-72
2020/12/18 06:59:22;;;;;;;53.63;18.57;;;5.30;99.90;;;;;;4622198;29;180355;-71
2020/12/18 07:01:48;;;;;;;180.40;25.40;;;5.50;99.90;;;;;;4628349;29;178351;-72
2020/12/18 07:04:19;;;;;;;23.93;16.00;;;5.30;99.90;;;;;;4626181;29;178264;-72
2020/12/18 07:06:45;;;;;;;32.87;19.00;;;5.30;99.90;;;;;;4625976;29;178910;-71
2020/12/18 07:09:12;;;;;;;34.83;15.70;;;5.20;99.90;;;;;;4625599;29;182918;-72
2020/12/18 07:11:40;;;;;;;22.27;14.60;;;5.20;99.90;;;;;;4641214;29;182150;-72
2020/12/18 07:14:15;;;;;;;21.07;13.63;;;5.20;99.90;;;;;;4641506;29;178869;-72
2020/12/18 07:16:52;;;;;;;20.37;13.80;;;5.20;99.90;;;;;;4629177;29;178372;-71
2020/12/18 07:19:18;;;;;;;19.03;13.97;;;5.30;99.90;;;;;;4628581;29;179902;-72
2020/12/18 07:22:03;;;;;;;22.63;13.70;;;5.20;99.90;;;;;;4641046;29;181680;-72
2020/12/18 07:24:29;;;;;;;24.63;13.97;;;5.20;99.90;;;;;;4617363;29;178323;-73
2020/12/18 07:26:56;;;;;;;32.77;15.03;;;5.20;99.90;;;;;;4629395;29;177163;-72
2020/12/18 07:29:22;;;;;;;35.37;15.60;;;5.20;99.90;;;;;;4628535;29;179338;-72
2020/12/18 07:31:48;;;;;;;45.80;16.50;;;5.20;99.90;;;;;;4627553;29;178717;-72
2020/12/18 07:34:18;;;;;;;30.73;15.23;;;5.20;99.90;;;;;;4626139;29;182430;-71
2020/12/18 07:36:44;;;;;;;49.50;16.53;;;5.30;99.90;;;;;;4629147;29;177942;-72
2020/12/18 07:39:10;;;;;;;30.20;15.03;;;5.20;99.90;;;;;;4628240;29;179354;-72
2020/12/18 07:41:37;;;;;;;40.33;17.10;;;5.30;99.90;;;;;;4627762;29;178246;-72
2020/12/18 07:44:05;;;;;;;29.50;15.57;;;5.20;99.90;;;;;;4641780;29;178618;-72
2020/12/18 07:46:33;;;;;;;21.87;14.37;;;5.30;99.90;;;;;;4628670;29;178071;-72
2020/12/18 07:49:11;;;;;;;22.40;14.73;;;5.30;99.90;;;;;;4627918;29;181550;-72
2020/12/18 07:51:39;;;;;;;23.90;14.60;;;5.30;99.90;;;;;;4628313;29;178410;-72
2020/12/18 07:54:05;;;;;;;43.87;16.50;;;5.30;99.90;;;;;;4628012;29;178624;-73
2020/12/18 07:56:32;;;;;;;25.83;14.40;;;5.40;99.90;;;;;;4631332;29;178994;-72
2020/12/18 07:59:05;;;;;;;26.60;14.33;;;5.40;99.90;;;;;;4629705;29;183996;-72
2020/12/18 08:01:34;;;;;;;35.83;14.97;;;5.60;99.90;;;;;;4630393;29;181774;-72
2020/12/18 08:04:08;;;;;;;24.80;15.50;;;5.40;99.90;;;;;;4645200;29;178758;-72
2020/12/18 08:06:39;;;;;;;30.83;14.77;;;5.40;99.90;;;;;;4632582;29;177892;-72
2020/12/18 08:09:13;;;;;;;26.97;15.27;;;5.40;99.90;;;;;;4631435;29;180581;-72
2020/12/18 08:11:45;;;;;;;19.17;13.70;;;5.40;99.90;;;;;;4630581;29;178231;-72
2020/12/18 08:14:13;;;;;;;18.63;13.33;;;5.70;99.90;;;;;;4631593;29;178179;-72
2020/12/18 08:16:40;;;;;;;20.77;14.13;;;5.50;99.90;;;;;;4631947;29;176637;-72
2020/12/18 08:19:08;;;;;;;18.13;13.27;;;5.50;99.90;;;;;;4641454;29;180857;-72
2020/12/18 08:21:35;;;;;;;20.37;13.27;;;5.50;99.90;;;;;;4627296;29;179087;-72
2020/12/18 08:24:07;;;;;;;17.63;12.53;;;5.50;99.90;;;;;;4629491;29;182078;-73
2020/12/18 08:26:37;;;;;;;22.77;13.73;;;5.50;99.90;;;;;;4632604;29;178017;-73
2020/12/18 08:29:05;;;;;;;20.03;14.10;;;5.60;99.90;;;;;;4645908;29;179551;-72
2020/12/18 08:31:35;;;;;;;18.10;13.07;;;5.60;99.90;;;;;;4646713;29;180897;-73
2020/12/18 08:34:10;;;;;;;17.83;13.70;;;5.60;99.90;;;;;;4633447;29;178632;-74
2020/12/18 08:36:45;;;;;;;30.03;13.63;;;5.60;99.90;;;;;;4633673;29;178575;-73
2020/12/18 08:39:12;;;;;;;17.73;13.13;;;5.70;99.90;;;;;;4632919;29;178966;-73
2020/12/18 08:41:53;;;;;;;16.23;13.20;;;5.70;99.90;;;;;;4633865;29;178534;-72
2020/12/18 08:44:22;;;;;;;22.77;13.17;;;5.70;99.90;;;;;;4618630;29;178404;-73
2020/12/18 08:46:49;;;;;;;16.07;12.23;;;6.10;99.90;;;;;;4633626;29;178701;-74
2020/12/18 08:49:25;;;;;;;15.23;12.40;;;5.80;99.90;;;;;;4630905;29;183777;-74
2020/12/18 08:51:54;;;;;;;24.57;17.83;;;5.80;99.90;;;;;;4633084;29;182275;-74
2020/12/18 08:54:25;;;;;;;17.63;13.50;;;5.80;99.90;;;;;;4632544;29;179270;-76
2020/12/18 08:57:12;;;;;;;18.10;13.30;;;5.80;99.90;;;;;;4633182;29;179154;-74
2020/12/18 08:59:42;;;;;;;17.23;13.00;;;6.10;99.90;;;;;;4632789;29;179721;-74
2020/12/18 09:02:16;;;;;;;17.07;12.93;;;5.80;99.90;;;;;;4632115;29;178545;-73
2020/12/18 09:04:42;;;;;;;15.57;12.07;;;5.90;99.90;;;;;;4632268;29;179212;-75
2020/12/18 09:07:08;;;;;;;16.27;12.50;;;5.90;99.90;;;;;;4633896;29;177141;-75
2020/12/18 09:09:34;;;;;;;15.73;12.13;;;6.20;99.90;;;;;;4646296;29;180843;-75
2020/12/18 09:12:16;;;;;;;15.47;11.60;;;6.00;99.90;;;;;;4631599;29;180861;-77
2020/12/18 09:14:43;;;;;;;15.17;11.53;;;6.00;99.90;;;;;;4631876;29;181365;-78
2020/12/18 09:17:12;;;;;;;20.00;12.67;;;6.20;99.90;;;;;;4633793;29;178553;-75
2020/12/18 09:19:56;;;;;;;18.23;12.50;;;6.00;99.90;;;;;;4632799;29;178638;-75
2020/12/18 09:22:30;;;;;;;18.33;12.90;;;6.10;99.90;;;;;;4632541;29;181274;-78
2020/12/18 09:25:03;;;;;;;17.63;12.20;;;5.90;99.90;;;;;;4631641;29;177993;-74
2020/12/18 09:27:31;;;;;;;18.63;13.10;;;5.80;99.90;;;;;;4633486;29;178091;-77
2020/12/18 09:29:59;;;;;;;21.23;13.47;;;6.10;99.90;;;;;;4632576;29;179402;-77
2020/12/18 09:32:28;;;;;;;14.07;12.07;;;6.20;99.90;;;;;;4633074;29;178425;-77
2020/12/18 09:34:54;;;;;;;14.93;11.80;;;6.60;99.90;;;;;;4633063;29;178354;-76
2020/12/18 09:37:23;;;;;;;16.90;12.47;;;6.20;99.90;;;;;;4632861;29;178162;-76
2020/12/18 09:39:49;;;;;;;17.03;12.33;;;6.20;99.90;;;;;;4628817;29;182606;-79
2020/12/18 09:42:18;;;;;;;16.17;12.53;;;6.20;99.90;;;;;;4640472;29;183706;-76
2020/12/18 09:45:01;;;;;;;14.57;12.13;;;6.30;99.90;;;;;;4630057;29;178125;-78
2020/12/18 09:47:27;;;;;;;15.23;12.00;;;6.40;99.90;;;;;;4618985;29;178193;-77
2020/12/18 09:49:54;;;;;;;17.90;12.40;;;6.50;99.90;;;;;;4627447;29;181120;-78
2020/12/18 09:52:20;;;;;;;14.63;11.53;;;6.50;99.90;;;;;;4631010;29;178932;-79
2020/12/18 09:54:46;;;;;;;17.77;11.33;;;6.60;99.90;;;;;;4632066;29;177874;-77
2020/12/18 09:57:12;;;;;;;14.77;12.20;;;6.60;99.90;;;;;;4633463;29;176535;-77
2020/12/18 09:59:39;;;;;;;16.50;12.30;;;6.60;99.90;;;;;;4645559;29;179554;-79
2020/12/18 10:02:05;;;;;;;19.60;12.67;;;6.60;99.90;;;;;;4631515;29;178558;-78
2020/12/18 10:04:32;;;;;;;17.47;12.63;;;6.90;99.90;;;;;;4629962;29;181279;-77
2020/12/18 10:07:00;;;;;;;15.90;13.10;;;6.70;99.90;;;;;;4631374;29;180558;-78
2020/12/18 10:09:28;;;;;;;22.17;12.57;;;6.70;99.90;;;;;;4643972;29;182005;-77
2020/12/18 10:11:55;;;;;;;15.47;12.23;;;6.70;99.90;;;;;;4627584;29;179190;-75
2020/12/18 10:14:21;;;;;;;17.43;12.07;;;6.70;99.90;;;;;;4629798;29;177992;-78
2020/12/18 10:16:47;;;;;;;17.47;14.07;;;6.80;99.90;;;;;;4628289;29;179882;-76
2020/12/18 10:19:13;;;;;;;17.90;14.00;;;6.90;99.90;;;;;;4626553;29;178840;-79
2020/12/18 10:21:40;;;;;;;15.83;12.23;;;6.90;99.90;;;;;;4629182;29;178357;-79
2020/12/18 10:24:06;;;;;;;15.23;12.93;;;6.90;99.90;;;;;;4631271;29;178362;-78
2020/12/18 10:26:32;;;;;;;14.53;12.43;;;6.90;99.90;;;;;;4632558;29;178585;-79
2020/12/18 10:28:59;;;;;;;15.13;11.60;;;7.00;99.90;;;;;;4628962;29;183078;-78
2020/12/18 10:31:26;;;;;;;17.17;13.97;;;7.10;99.90;;;;;;4627520;29;181549;-78
2020/12/18 10:33:58;;;;;;;16.50;13.00;;;7.10;99.90;;;;;;4625278;29;179722;-76
2020/12/18 10:36:24;;;;;;;15.03;10.73;;;7.20;99.90;;;;;;4625757;29;179845;-78
2020/12/18 10:38:54;;;;;;;13.17;10.40;;;7.30;99.90;;;;;;4626874;29;179446;-78
2020/12/18 10:41:20;;;;;;;19.33;11.57;;;7.30;99.90;;;;;;4625707;29;179012;-77
2020/12/18 10:43:47;;;;;;;12.17;10.40;;;7.40;99.90;;;;;;4627914;29;179127;-79
2020/12/18 10:46:13;;;;;;;12.00;10.20;;;7.40;99.90;;;;;;4628421;29;177181;-76
2020/12/18 10:48:39;;;;;;;16.57;10.47;;;7.50;99.90;;;;;;4640340;29;179909;-78
2020/12/18 10:51:06;;;;;;;13.63;10.50;;;;;;;;;;4626925;29;178373;-78
2020/12/18 10:53:32;;;;;;;12.40;9.90;;;7.60;99.90;;;;;;4626678;29;181949;-77
2020/12/18 10:56:00;;;;;;;13.53;9.90;;;7.70;99.90;;;;;;4628082;29;178099;-79
2020/12/18 10:58:27;;;;;;;11.53;9.60;;;7.80;99.90;;;;;;4629052;29;180577;-80
2020/12/18 11:00:53;;;;;;;17.67;10.50;;;7.80;99.90;;;;;;4628695;29;179289;-80
2020/12/18 11:03:20;;;;;;;11.07;9.47;;;7.90;99.90;;;;;;4627790;29;177941;-79
2020/12/18 11:05:46;;;;;;;13.13;9.90;;;8.10;99.90;;;;;;4629822;29;178310;-81
2020/12/18 11:08:12;;;;;;;16.23;12.30;;;8.00;99.90;;;;;;4627094;29;179539;-76
2020/12/18 11:10:38;;;;;;;13.83;10.43;;;8.10;99.90;;;;;;4624832;29;178224;-79
2020/12/18 11:13:05;;;;;;;12.73;9.63;;;8.10;99.90;;;;;;4625664;29;178285;-79
2020/12/18 11:15:31;;;;;;;12.93;9.40;;;8.20;99.90;;;;;;4627575;29;178577;-78
2020/12/18 11:17:57;;;;;;;11.77;8.70;;;8.20;99.90;;;;;;4625498;29;181655;-80
2020/12/18 11:20:23;;;;;;;13.60;10.50;;;8.20;99.90;;;;;;4628564;29;182977;-79
2020/12/18 11:22:50;;;;;;;12.57;9.73;;;8.30;99.90;;;;;;4638945;29;179284;-80
2020/12/18 11:25:23;;;;;;;9.80;8.10;;;8.40;99.90;;;;;;4642830;29;178684;-80
2020/12/18 11:27:49;;;;;;;11.13;8.17;;;8.40;99.90;;;;;;4629093;29;179728;-80
2020/12/18 11:30:16;;;;;;;10.50;8.07;;;8.50;99.90;;;;;;4629253;29;178657;-78
2020/12/18 11:32:42;;;;;;;12.07;8.17;;;8.50;99.90;;;;;;4628823;29;178058;-79
2020/12/18 11:35:08;;;;;;;10.53;7.90;;;8.50;99.90;;;;;;4629650;29;178753;-79
2020/12/18 11:37:34;;;;;;;9.70;7.63;;;8.50;99.90;;;;;;4629349;29;182699;-80
2020/12/18 11:40:01;;;;;;;12.30;7.83;;;8.60;99.90;;;;;;4629605;29;181451;-80
2020/12/18 11:42:27;;;;;;;9.80;7.67;;;8.60;99.90;;;;;;4627763;29;181287;-80
2020/12/18 11:44:53;;;;;;;9.30;7.87;;;8.60;99.90;;;;;;4629442;29;178162;-79
2020/12/18 11:47:20;;;;;;;13.03;8.37;;;8.60;99.90;;;;;;4630158;29;180089;-81
2020/12/18 11:49:46;;;;;;;11.80;7.70;;;8.70;99.90;;;;;;4629451;29;178027;-80
2020/12/18 11:52:12;;;;;;;9.77;7.67;;;8.70;99.90;;;;;;4628848;29;178363;-80
2020/12/18 11:54:39;;;;;;;11.93;7.73;;;8.80;99.90;;;;;;4641384;29;178119;-78
2020/12/18 11:57:05;;;;;;;10.73;7.87;;;8.80;99.90;;;;;;4628914;29;179565;-79
2020/12/18 11:59:31;;;;;;;11.10;8.73;;;8.80;99.90;;;;;;4629510;29;177847;-79
2020/12/18 12:01:58;;;;;;;12.83;9.83;;;9.00;99.90;;;;;;4628577;29;177999;-78
2020/12/18 12:04:24;;;;;;;11.77;9.83;;;9.00;99.90;;;;;;4629606;29;178640;-77
2020/12/18 12:06:51;;;;;;;15.13;10.20;;;8.80;99.90;;;;;;4627364;29;183411;-80
2020/12/18 12:09:17;;;;;;;13.03;10.57;;;8.80;99.90;;;;;;4626995;29;181675;-75
2020/12/18 12:11:43;;;;;;;13.93;10.27;;;8.80;99.90;;;;;;4627710;29;179569;-79
2020/12/18 12:14:10;;;;;;;14.40;10.30;;;8.80;99.90;;;;;;4628409;29;177999;-77
2020/12/18 12:16:40;;;;;;;14.47;10.60;;;8.80;99.90;;;;;;4627603;29;179540;-76
2020/12/18 12:19:08;;;;;;;12.33;9.67;;;8.80;99.90;;;;;;4627784;29;179052;-80
2020/12/18 12:21:35;;;;;;;11.77;9.43;;;8.70;99.90;;;;;;4641849;29;178053;-78
2020/12/18 12:24:02;;;;;;;11.07;9.10;;;8.80;99.90;;;;;;4630273;29;177016;-79
2020/12/18 12:26:29;;;;;;;12.10;9.80;;;8.80;99.90;;;;;;4628747;29;179300;-76
2020/12/18 12:28:55;;;;;;;11.80;10.27;;;8.80;99.90;;;;;;4629369;29;178346;-78
2020/12/18 12:31:22;;;;;;;13.40;9.87;;;8.70;99.90;;;;;;4625656;29;182094;-77
2020/12/18 12:33:48;;;;;;;11.97;10.10;;;8.70;99.90;;;;;;4628680;29;178113;-79
2020/12/18 12:36:25;;;;;;;12.63;9.80;;;8.70;99.90;;;;;;4627893;29;179560;-79
2020/12/18 12:38:52;;;;;;;12.40;9.90;;;8.70;99.90;;;;;;4628961;29;178250;-78
2020/12/18 12:41:18;;;;;;;12.87;9.57;;;8.70;99.90;;;;;;4628585;29;179591;-79
2020/12/18 12:43:45;;;;;;;13.40;10.33;;;8.70;99.90;;;;;;4632275;29;178101;-79
2020/12/18 12:46:11;;;;;;;14.87;10.10;;;8.70;99.90;;;;;;4629471;29;179103;-77
2020/12/18 12:48:38;;;;;;;12.13;9.37;;;8.70;99.90;;;;;;4631355;29;177013;-77
2020/12/18 12:51:04;;;;;;;11.00;9.37;;;8.70;99.90;;;;;;4631070;29;177924;-78
2020/12/18 12:53:31;;;;;;;14.07;9.60;;;8.60;99.90;;;;;;4630385;29;178757;-76
2020/12/18 12:55:57;;;;;;;14.43;9.50;;;8.70;99.90;;;;;;4629928;29;182657;-75
2020/12/18 12:58:23;;;;;;;12.97;9.77;;;8.60;99.90;;;;;;4631384;29;181461;-78
2020/12/18 13:00:50;;;;;;;10.87;9.43;;;8.70;99.90;;;;;;4632039;29;177902;-78
2020/12/18 13:03:16;;;;;;;13.97;9.97;;;8.70;99.90;;;;;;4631270;29;178155;-78
2020/12/18 13:05:44;;;;;;;11.83;9.53;;;8.60;99.90;;;;;;4642827;29;183521;-80
2020/12/18 13:08:11;;;;;;;13.20;9.60;;;8.60;99.90;;;;;;4633090;29;178677;-79
2020/12/18 13:10:41;;;;;;;14.93;9.67;;;8.60;99.90;;;;;;4632657;29;178856;-78
2020/12/18 13:13:09;;;;;;;10.27;9.10;;;8.60;99.90;;;;;;4625481;29;176599;-78
2020/12/18 13:15:36;;;;;;;13.63;9.23;;;8.60;99.90;;;;;;4614943;30;180481;-77
2020/12/18 13:18:03;;;;;;;11.17;8.70;;;8.60;99.90;;;;;;4627677;29;179495;-77
2020/12/18 13:20:30;;;;;;;16.07;10.73;;;8.60;99.90;;;;;;4631491;29;181632;-78
2020/12/18 13:22:56;;;;;;;16.57;9.83;;;8.50;99.90;;;;;;4632224;29;178084;-77
2020/12/18 13:25:24;;;;;;;11.80;9.60;;;8.50;99.90;;;;;;4633679;29;178686;-77
2020/12/18 13:27:52;;;;;;;32.07;10.67;;;8.50;99.90;;;;;;4633621;29;178542;-80
2020/12/18 13:30:20;;;;;;;11.23;8.40;;;8.50;99.90;;;;;;4632524;29;177955;-79
2020/12/18 13:32:47;;;;;;;13.20;9.40;;;8.50;99.90;;;;;;4646988;29;178402;-78
2020/12/18 13:35:13;;;;;;;27.70;10.27;;;8.50;99.90;;;;;;4634034;29;180381;-78
2020/12/18 13:37:39;;;;;;;14.07;9.50;;;8.50;99.90;;;;;;4646329;29;178289;-78
2020/12/18 13:40:07;;;;;;;12.20;9.57;;;8.40;99.90;;;;;;4634904;29;178794;-78
2020/12/18 13:42:35;;;;;;;13.00;8.87;;;8.40;99.90;;;;;;4633507;29;177909;-78
2020/12/18 13:45:03;;;;;;;11.17;8.50;;;8.40;99.90;;;;;;4638803;29;182003;-79
2020/12/18 13:47:29;;;;;;;11.77;8.60;;;8.40;99.90;;;;;;4633437;29;181123;-77
2020/12/18 13:49:55;;;;;;;11.07;8.80;;;8.40;99.90;;;;;;4634329;29;178032;-79
2020/12/18 13:52:22;;;;;;;10.97;9.07;;;8.40;99.90;;;;;;4633947;29;177997;-78
2020/12/18 13:54:48;;;;;;;10.07;8.47;;;8.40;99.90;;;;;;4633351;29;180123;-78
2020/12/18 13:57:16;;;;;;;10.00;8.60;;;8.40;99.90;;;;;;4633873;29;178635;-78
2020/12/18 13:59:42;;;;;;;13.43;8.43;;;8.40;99.90;;;;;;4634204;29;178375;-77
2020/12/18 14:02:09;;;;;;;10.83;7.67;;;8.30;99.90;;;;;;4633464;29;177126;-77
2020/12/18 14:04:35;;;;;;;11.03;8.40;;;8.30;99.90;;;;;;4632984;29;178898;-78
2020/12/18 14:07:01;;;;;;;10.63;8.40;;;8.30;99.90;;;;;;4646516;29;179597;-81
2020/12/18 14:09:27;;;;;;;11.07;8.50;;;8.30;99.90;;;;;;4632483;29;181839;-76
2020/12/18 14:11:54;;;;;;;11.47;8.40;;;8.30;99.90;;;;;;4633688;29;177916;-79
2020/12/18 14:14:21;;;;;;;13.33;8.67;;;8.30;99.90;;;;;;4633619;29;179215;-78
2020/12/18 14:16:48;;;;;;;11.20;8.50;;;8.20;99.90;;;;;;4632955;29;177930;-77
2020/12/18 14:19:14;;;;;;;10.57;7.60;;;8.20;99.90;;;;;;4646541;29;178617;-77
2020/12/18 14:21:41;;;;;;;20.77;8.63;;;8.20;99.90;;;;;;4633513;29;177961;-79
2020/12/18 14:24:07;;;;;;;15.47;8.10;;;8.20;99.90;;;;;;4632420;29;179325;-77
2020/12/18 14:26:34;;;;;;;13.17;7.93;;;8.20;99.90;;;;;;4633692;29;177357;-78
2020/12/18 14:29:00;;;;;;;10.67;7.93;;;8.20;99.90;;;;;;4633247;29;177895;-76
2020/12/18 14:31:26;;;;;;;13.77;8.17;;;8.10;99.90;;;;;;4633256;29;178918;-78
2020/12/18 14:33:52;;;;;;;11.27;7.87;;;8.10;99.90;;;;;;4630926;29;183337;-77
2020/12/18 14:36:19;;;;;;;13.53;8.10;;;8.10;99.90;;;;;;4632321;29;180744;-78
2020/12/18 14:38:46;;;;;;;14.60;8.37;;;8.10;99.90;;;;;;4646131;29;178801;-77
2020/12/18 14:41:15;;;;;;;12.43;8.20;;;8.00;99.90;;;;;;4648095;29;178542;-79
2020/12/18 14:43:44;;;;;;;13.37;8.17;;;8.00;99.90;;;;;;4647342;29;178562;-78
2020/12/18 14:46:10;;;;;;;15.63;8.80;;;8.00;99.90;;;;;;4631631;29;178059;-78
2020/12/18 14:48:37;;;;;;;17.43;8.13;;;7.90;99.90;;;;;;4625858;29;178056;-76
2020/12/18 14:51:03;;;;;;;22.43;8.80;;;7.90;99.90;;;;;;4633336;29;177050;-72
2020/12/18 14:53:29;;;;;;;10.23;7.77;;;7.90;99.90;;;;;;4646094;29;178289;-79
2020/12/18 14:55:56;;;;;;;13.90;8.10;;;7.90;99.90;;;;;;4632966;29;178830;-78
2020/12/18 14:58:22;;;;;;;19.40;8.33;;;7.80;99.90;;;;;;4631598;29;181947;-78
2020/12/18 15:00:48;;;;;;;12.47;8.80;;;7.80;99.90;;;;;;4633215;29;177949;-76
2020/12/18 15:03:14;;;;;;;12.17;8.80;;;7.80;99.90;;;;;;4630695;29;180462;-80
2020/12/18 15:05:41;;;;;;;12.73;8.40;;;7.70;99.90;;;;;;4632770;29;178918;-74
2020/12/18 15:08:07;;;;;;;10.53;8.97;;;7.70;99.90;;;;;;4632609;29;177979;-77
2020/12/18 15:10:33;;;;;;;11.87;8.90;;;7.70;99.90;;;;;;4633034;29;177865;-79
2020/12/18 15:13:00;;;;;;;75.00;14.47;;;7.70;99.90;;;;;;4631697;29;178607;-74
2020/12/18 15:15:26;;;;;;;24.47;9.30;;;7.60;99.90;;;;;;4632215;29;178401;-77
2020/12/18 15:17:53;;;;;;;31.00;10.70;;;7.60;99.90;;;;;;4633556;29;178812;-77
2020/12/18 15:20:19;;;;;;;45.27;12.07;;;7.60;99.90;;;;;;4631862;29;178516;-77
2020/12/18 15:22:49;;;;;;;15.27;9.83;;;7.60;99.90;;;;;;4629297;29;183014;-78
2020/12/18 15:25:15;;;;;;;15.70;10.57;;;7.60;99.90;;;;;;4644295;29;182244;-77
2020/12/18 15:27:41;;;;;;;28.63;12.60;;;7.50;99.90;;;;;;4632110;29;178064;-76
2020/12/18 15:30:08;;;;;;;22.83;11.80;;;7.50;99.90;;;;;;4645262;29;178548;-76
2020/12/18 15:32:34;;;;;;;16.80;10.50;;;7.50;99.90;;;;;;4631046;29;179518;-76
2020/12/18 15:35:00;;;;;;;15.60;10.40;;;7.40;99.90;;;;;;4631652;29;178160;-77
2020/12/18 15:37:26;;;;;;;15.30;10.30;;;7.40;99.90;;;;;;4631541;29;178994;-76
2020/12/18 15:39:53;;;;;;;35.07;12.93;;;7.30;99.90;;;;;;4632322;29;176515;-78
2020/12/18 15:42:19;;;;;;;27.00;11.47;;;7.40;99.90;;;;;;4628208;29;182389;-78
2020/12/18 15:44:46;;;;;;;17.10;10.27;;;7.30;99.90;;;;;;4631376;29;178380;-78
2020/12/18 15:47:12;;;;;;;18.07;10.67;;;7.20;99.90;;;;;;4629513;29;182493;-78
2020/12/18 15:49:40;;;;;;;35.20;14.43;;;7.20;99.90;;;;;;4631654;29;177980;-78
2020/12/18 15:52:06;;;;;;;21.43;14.67;;;7.10;99.90;;;;;;4630572;29;179873;-78
2020/12/18 15:54:33;;;;;;;23.87;14.23;;;7.10;99.90;;;;;;4630988;29;179224;-76
2020/12/18 15:56:59;;;;;;;47.33;13.17;;;7.10;99.90;;;;;;4630910;29;178454;-78
2020/12/18 15:59:27;;;;;;;23.37;11.37;;;7.00;99.90;;;;;;4631450;29;178627;-77
2020/12/18 16:01:53;;;;;;;13.93;10.33;;;7.00;99.90;;;;;;4629188;29;179217;-77
2020/12/18 16:04:20;;;;;;;40.37;12.63;;;6.90;99.90;;;;;;4631739;29;178499;-75
2020/12/18 16:06:46;;;;;;;39.03;13.57;;;6.90;99.90;;;;;;4631213;29;179123;-77
2020/12/18 16:09:12;;;;;;;43.77;14.53;;;6.90;99.90;;;;;;4629585;29;178427;-78
2020/12/18 16:11:38;;;;;;;29.47;13.93;;;6.90;99.90;;;;;;4641893;29;183603;-76
2020/12/18 16:14:05;;;;;;;26.90;13.17;;;6.80;99.90;;;;;;4628559;29;181440;-74
2020/12/18 16:16:31;;;;;;;15.87;11.87;;;6.80;99.90;;;;;;4636750;29;178789;-75
2020/12/18 16:18:57;;;;;;;75.37;17.43;;;6.70;99.90;;;;;;4631912;29;178615;-75
2020/12/18 16:21:24;;;;;;;32.63;14.03;;;6.70;99.90;;;;;;4630173;29;178756;-76
2020/12/18 16:23:50;;;;;;;25.77;10.50;;;6.70;99.90;;;;;;4631519;29;178127;-75
2020/12/18 16:26:19;;;;;;;73.93;13.93;;;6.60;99.90;;;;;;4631304;29;180098;-75
2020/12/18 16:28:45;;;;;;;21.50;10.00;;;6.60;99.90;;;;;;4632037;29;176744;-75
2020/12/18 16:31:11;;;;;;;21.00;12.37;;;6.60;99.90;;;;;;4643333;29;178695;-75
2020/12/18 16:33:38;;;;;;;24.97;9.67;;;6.60;99.90;;;;;;4631257;29;178889;-74
2020/12/18 16:36:04;;;;;;;27.73;21.27;;;6.60;99.90;;;;;;4630347;29;182011;-74
2020/12/18 16:38:30;;;;;;;17.07;10.30;;;6.60;99.90;;;;;;4630896;29;178377;-74
2020/12/18 16:40:56;;;;;;;18.17;9.43;;;6.50;99.90;;;;;;4640345;29;178838;-74
2020/12/18 16:43:24;;;;;;;11.40;8.53;;;6.50;99.90;;;;;;4631217;29;178681;-74
2020/12/18 16:45:58;;;;;;;12.27;8.93;;;6.50;99.90;;;;;;4632635;29;178039;-75
2020/12/18 16:48:25;;;;;;;45.23;11.20;;;6.50;99.90;;;;;;4631561;29;178775;-74
2020/12/18 16:50:52;;;;;;;64.80;14.83;;;6.40;99.90;;;;;;4643204;29;179814;-74
2020/12/18 16:53:19;;;;;;;35.10;11.40;;;6.40;99.90;;;;;;4629266;29;178456;-75
2020/12/18 16:55:46;;;;;;;13.77;9.00;;;6.40;99.90;;;;;;4643965;29;178557;-75
2020/12/18 16:58:12;;;;;;;39.03;11.50;;;6.40;99.90;;;;;;4631687;29;178328;-73
2020/12/18 17:00:39;;;;;;;37.07;11.00;;;6.40;99.90;;;;;;4629484;29;182986;-75
2020/12/18 17:03:06;;;;;;;19.80;9.50;;;6.30;99.90;;;;;;4628692;29;180968;-75
2020/12/18 17:05:33;;;;;;;19.37;9.80;;;6.40;99.90;;;;;;4632114;29;179117;-75
2020/12/18 17:08:03;;;;;;;18.67;9.67;;;6.30;99.90;;;;;;4631780;29;178382;-75
2020/12/18 17:10:30;;;;;;;14.50;9.40;;;6.30;99.90;;;;;;4631598;29;179507;-74
2020/12/18 17:12:57;;;;;;;77.10;15.43;;;6.30;99.90;;;;;;4629988;29;178854;-74
2020/12/18 17:15:24;;;;;;;40.63;12.50;;;6.30;99.90;;;;;;4743008;24;179948;-76
2020/12/18 17:17:51;;;;;;;23.23;11.23;;;6.20;99.90;;;;;;4648151;29;179831;-76
2020/12/18 17:20:17;;;;;;;34.83;13.27;;;6.30;99.90;;;;;;4647986;29;180126;-77
2020/12/18 17:22:44;;;;;;;40.13;11.77;;;6.30;99.90;;;;;;4645973;29;178194;-77
2020/12/18 17:25:10;;;;;;;51.90;12.73;;;6.20;99.90;;;;;;4645610;29;181884;-78
2020/12/18 17:27:36;;;;;;;19.37;10.10;;;6.20;99.90;;;;;;4645720;29;178136;-77
2020/12/18 17:30:03;;;;;;;58.50;14.13;;;6.20;99.90;;;;;;4646982;29;179008;-77
2020/12/18 17:32:30;;;;;;;15.77;9.00;;;6.20;99.90;;;;;;4647146;29;179036;-77
2020/12/18 17:34:57;;;;;;;29.47;11.50;;;6.40;99.90;;;;;;4648608;29;178671;-78
2020/12/18 17:37:24;;;;;;;30.73;10.83;;;6.20;99.90;;;;;;4660564;29;178571;-78
2020/12/18 17:39:50;;;;;;;23.10;10.03;;;6.30;99.90;;;;;;4647260;29;178977;-78
2020/12/18 17:42:22;;;;;;;17.93;9.17;;;6.20;99.90;;;;;;4647542;29;177598;-78